createdAt,value
2022-11-23T00:00:06.168Z,1.90
2022-11-23T00:02:32.698Z,2.03
2022-11-23T00:04:59.058Z,2.67
2022-11-23T00:07:25.439Z,1.92
2022-11-23T00:09:51.851Z,1.63
2022-11-23T00:12:18.311Z,2.38
2022-11-23T00:14:44.656Z,1.92
2022-11-23T00:17:10.998Z,2.22
2022-11-23T00:19:37.364Z,1.77
2022-11-23T00:22:03.873Z,1.77
2022-11-23T00:24:30.357Z,2.85
2022-11-23T00:26:56.722Z,2.28
2022-11-23T00:29:23.069Z,1.95
2022-11-23T00:31:49.440Z,1.65
2022-11-23T00:34:16.112Z,1.98
2022-11-23T00:36:42.461Z,2.55
2022-11-23T00:39:08.826Z,1.65
2022-11-23T00:41:35.294Z,3.65
2022-11-23T00:44:01.653Z,1.70
2022-11-23T00:46:28.629Z,1.73
2022-11-23T00:48:56.341Z,1.98
2022-11-23T00:51:28.203Z,2.05
2022-11-23T00:53:54.588Z,1.73
2022-11-23T00:56:21.100Z,2.00
2022-11-23T00:58:51.399Z,2.28
2022-11-23T01:01:19.999Z,1.55
2022-11-23T01:03:48.860Z,2.22
2022-11-23T01:06:20.552Z,1.92
2022-11-23T01:09:02.481Z,1.98
2022-11-23T01:11:30.056Z,1.73
2022-11-23T01:13:56.449Z,2.03
2022-11-23T01:16:31.147Z,1.85
2022-11-23T01:19:00.617Z,1.85
2022-11-23T01:21:28.480Z,1.85
2022-11-23T01:23:55.349Z,2.78
2022-11-23T01:26:22.465Z,2.60
2022-11-23T01:28:48.926Z,1.77
2022-11-23T01:31:17.662Z,1.35
2022-11-23T01:33:44.041Z,1.63
2022-11-23T01:36:15.835Z,1.83
2022-11-23T01:38:42.738Z,1.90
2022-11-23T01:41:15.306Z,1.75
2022-11-23T01:43:41.937Z,1.42
2022-11-23T01:46:09.051Z,1.80
2022-11-23T01:48:39.497Z,1.73
2022-11-23T01:51:13.619Z,1.55
2022-11-23T01:53:40.808Z,1.52
2022-11-23T01:56:08.526Z,1.80
2022-11-23T01:58:40.055Z,1.95
2022-11-23T02:01:07.310Z,1.75
2022-11-23T02:03:34.870Z,1.98
2022-11-23T02:06:03.590Z,1.70
2022-11-23T02:08:30.060Z,1.85
2022-11-23T02:10:57.728Z,1.85
2022-11-23T02:13:24.292Z,1.30
2022-11-23T02:15:51.313Z,1.70
2022-11-23T02:18:21.598Z,1.80
2022-11-23T02:20:48.496Z,2.20
2022-11-23T02:23:30.006Z,1.70
2022-11-23T02:26:00.997Z,2.08
2022-11-23T02:28:31.781Z,1.70
2022-11-23T02:30:58.260Z,2.00
2022-11-23T02:33:25.405Z,1.70
2022-11-23T02:35:53.865Z,1.77
2022-11-23T02:38:20.954Z,2.85
2022-11-23T02:40:47.643Z,1.58
2022-11-23T02:43:14.187Z,2.00
2022-11-23T02:45:51.126Z,1.77
2022-11-23T02:48:18.393Z,1.75
2022-11-23T02:50:45.361Z,1.60
2022-11-23T02:53:12.388Z,2.10
2022-11-23T02:55:39.103Z,2.45
2022-11-23T02:58:06.540Z,1.83
2022-11-23T03:00:33.230Z,1.95
2022-11-23T03:03:01.222Z,1.80
2022-11-23T03:05:27.658Z,2.13
2022-11-23T03:07:54.169Z,1.83
2022-11-23T03:10:20.765Z,2.03
2022-11-23T03:12:47.151Z,2.67
2022-11-23T03:15:13.563Z,1.67
2022-11-23T03:17:39.920Z,1.75
2022-11-23T03:20:06.849Z,1.70
2022-11-23T03:22:34.093Z,1.50
2022-11-23T03:25:00.478Z,1.80
2022-11-23T03:27:26.837Z,1.90
2022-11-23T03:29:53.205Z,1.38
2022-11-23T03:32:19.563Z,2.05
2022-11-23T03:34:45.942Z,2.05
2022-11-23T03:37:12.294Z,1.83
2022-11-23T03:39:42.866Z,2.25
2022-11-23T03:42:13.308Z,1.45
2022-11-23T03:44:39.746Z,1.77
2022-11-23T03:47:06.146Z,2.08
2022-11-23T03:49:32.734Z,2.03
2022-11-23T03:51:59.232Z,1.70
2022-11-23T03:54:25.587Z,2.08
2022-11-23T03:56:51.959Z,1.42
2022-11-23T03:59:18.379Z,2.22
2022-11-23T04:01:44.796Z,1.70
2022-11-23T04:04:11.172Z,2.13
2022-11-23T04:06:37.555Z,2.35
2022-11-23T04:09:04.108Z,1.70
2022-11-23T04:11:30.502Z,1.75
2022-11-23T04:13:56.867Z,1.50
2022-11-23T04:16:23.232Z,1.77
2022-11-23T04:18:49.634Z,2.30
2022-11-23T04:21:16.215Z,1.83
2022-11-23T04:23:42.553Z,1.88
2022-11-23T04:26:08.919Z,2.50
2022-11-23T04:28:35.263Z,1.52
2022-11-23T04:31:01.619Z,1.83
2022-11-23T04:33:28.206Z,1.65
2022-11-23T04:35:54.567Z,1.92
2022-11-23T04:38:20.910Z,2.40
2022-11-23T04:40:49.083Z,2.05
2022-11-23T04:43:15.436Z,1.60
2022-11-23T04:45:42.132Z,1.88
2022-11-23T04:48:08.539Z,2.00
2022-11-23T04:50:35.471Z,1.50
2022-11-23T04:53:01.835Z,1.60
2022-11-23T04:55:28.187Z,1.60
2022-11-23T04:57:54.590Z,1.60
2022-11-23T05:00:21.274Z,1.63
2022-11-23T05:02:47.646Z,2.17
2022-11-23T05:05:14.031Z,1.42
2022-11-23T05:07:40.465Z,1.98
2022-11-23T05:10:07.255Z,1.83
2022-11-23T05:12:33.654Z,1.60
2022-11-23T05:15:00.006Z,1.85
2022-11-23T05:17:26.384Z,1.30
2022-11-23T05:19:52.733Z,1.90
2022-11-23T05:22:19.150Z,1.55
2022-11-23T05:24:45.549Z,2.63
2022-11-23T05:27:11.931Z,1.50
2022-11-23T05:29:38.515Z,2.20
2022-11-23T05:32:05.187Z,2.35
2022-11-23T05:34:31.614Z,1.83
2022-11-23T05:36:58.039Z,1.55
2022-11-23T05:39:24.754Z,1.98
2022-11-23T05:41:51.118Z,2.53
2022-11-23T05:44:17.473Z,1.90
2022-11-23T05:46:43.842Z,2.15
2022-11-23T05:49:10.484Z,2.15
2022-11-23T05:51:36.949Z,2.13
2022-11-23T05:54:03.445Z,2.33
2022-11-23T05:56:29.901Z,2.53
2022-11-23T05:58:56.574Z,2.40
2022-11-23T06:01:23.079Z,2.53
2022-11-23T06:03:50.538Z,2.03
2022-11-23T06:06:16.988Z,2.40
2022-11-23T06:08:46.685Z,2.00
2022-11-23T06:11:15.463Z,2.42
2022-11-23T06:13:41.917Z,2.22
2022-11-23T06:16:08.355Z,2.22
2022-11-23T06:18:34.770Z,1.98
2022-11-23T06:21:01.212Z,2.38
2022-11-23T06:23:28.235Z,2.25
2022-11-23T06:25:54.691Z,3.78
2022-11-23T06:28:21.169Z,2.38
2022-11-23T06:30:47.543Z,1.80
2022-11-23T06:33:13.986Z,1.50
2022-11-23T06:35:40.349Z,2.00
2022-11-23T06:38:06.746Z,2.17
2022-11-23T06:40:33.131Z,1.85
2022-11-23T06:43:00.180Z,1.70
2022-11-23T06:45:27.293Z,2.38
2022-11-23T06:47:56.795Z,2.25
2022-11-23T06:50:23.650Z,1.80
2022-11-23T06:52:54.212Z,1.90
2022-11-23T06:55:21.376Z,2.88
2022-11-23T06:57:47.761Z,1.83
2022-11-23T07:00:14.834Z,2.28
2022-11-23T07:02:41.289Z,2.08
2022-11-23T07:05:08.008Z,1.83
2022-11-23T07:07:34.739Z,1.90
2022-11-23T07:10:05.555Z,1.95
2022-11-23T07:12:33.487Z,2.28
2022-11-23T07:14:59.832Z,1.63
2022-11-23T07:17:26.363Z,2.42
2022-11-23T07:19:52.744Z,2.45
2022-11-23T07:22:19.108Z,7.00
2022-11-23T07:24:47.055Z,2.05
2022-11-23T07:27:13.545Z,2.15
2022-11-23T07:29:39.904Z,1.88
2022-11-23T07:32:08.371Z,2.20
2022-11-23T07:34:34.791Z,1.88
2022-11-23T07:37:02.339Z,2.10
2022-11-23T07:39:55.160Z,2.30
2022-11-23T07:42:32.194Z,1.60
2022-11-23T07:45:00.237Z,1.90
2022-11-23T07:47:26.596Z,1.73
2022-11-23T07:49:53.001Z,1.95
2022-11-23T07:52:19.357Z,2.45
2022-11-23T07:54:45.965Z,2.20
2022-11-23T07:57:12.390Z,1.70
2022-11-23T07:59:39.637Z,2.38
2022-11-23T08:02:06.183Z,2.38
2022-11-23T08:04:32.716Z,1.73
2022-11-23T08:07:00.700Z,2.95
2022-11-23T08:09:27.058Z,1.30
2022-11-23T08:11:53.419Z,1.85
2022-11-23T08:14:19.786Z,1.70
2022-11-23T08:16:50.138Z,1.65
2022-11-23T08:19:17.253Z,2.13
2022-11-23T08:21:44.199Z,1.83
2022-11-23T08:24:10.584Z,1.80
2022-11-23T08:26:37.016Z,1.70
2022-11-23T08:29:04.200Z,1.83
2022-11-23T08:31:30.704Z,1.60
2022-11-23T08:34:02.914Z,1.75
2022-11-23T08:36:29.864Z,1.90
2022-11-23T08:38:56.234Z,1.27
2022-11-23T08:41:22.653Z,2.00
2022-11-23T08:43:49.155Z,1.95
2022-11-23T08:46:15.697Z,2.30
2022-11-23T08:48:42.547Z,1.52
2022-11-23T08:51:09.746Z,2.05
2022-11-23T08:53:36.202Z,2.28
2022-11-23T08:56:04.548Z,1.90
2022-11-23T08:58:30.982Z,1.85
2022-11-23T09:00:57.356Z,1.58
2022-11-23T09:03:23.758Z,1.65
2022-11-23T09:05:51.089Z,1.63
2022-11-23T09:08:17.881Z,2.17
2022-11-23T09:10:44.326Z,1.45
2022-11-23T09:13:10.784Z,1.50
2022-11-23T09:15:37.159Z,1.77
2022-11-23T09:18:03.564Z,1.70
2022-11-23T09:20:30.688Z,1.50
2022-11-23T09:22:57.030Z,1.70
2022-11-23T09:25:23.697Z,2.10
2022-11-23T09:27:50.252Z,2.83
2022-11-23T09:30:17.229Z,1.40
2022-11-23T09:32:43.675Z,1.80
2022-11-23T09:35:10.105Z,1.55
2022-11-23T09:37:36.458Z,1.75
2022-11-23T09:40:03.451Z,2.40
2022-11-23T09:42:38.658Z,1.80
2022-11-23T09:45:36.228Z,1.95
2022-11-23T09:48:44.041Z,1.80
2022-11-23T09:51:19.163Z,1.83
2022-11-23T09:53:59.109Z,2.00
2022-11-23T09:56:31.301Z,2.63
2022-11-23T10:01:27.506Z,2.30
2022-11-23T10:03:54.015Z,1.80
2022-11-23T10:06:28.622Z,1.80
2022-11-23T10:09:00.965Z,2.10
2022-11-23T10:11:48.905Z,2.42
2022-11-23T10:14:51.752Z,1.50
2022-11-23T10:17:27.484Z,2.28
2022-11-23T10:20:22.141Z,2.10
2022-11-23T10:22:59.745Z,1.90
2022-11-23T10:25:29.278Z,2.38
2022-11-23T10:28:01.295Z,1.85
2022-11-23T10:30:27.656Z,2.00
2022-11-23T10:33:32.120Z,2.50
2022-11-23T10:35:58.499Z,2.28
2022-11-23T10:38:26.877Z,2.28
2022-11-23T10:41:13.860Z,2.40
2022-11-23T10:43:44.119Z,2.33
2022-11-23T10:46:30.927Z,2.10
2022-11-23T10:49:24.780Z,2.15
2022-11-23T10:52:05.842Z,1.90
2022-11-23T10:54:45.782Z,2.67
2022-11-23T10:57:37.151Z,2.63
2022-11-23T11:00:05.574Z,2.42
2022-11-23T11:02:39.706Z,3.97
2022-11-23T11:08:18.307Z,2.20
2022-11-23T11:10:58.185Z,2.40
2022-11-23T11:13:46.145Z,2.08
2022-11-23T11:16:18.734Z,2.53
2022-11-23T11:18:45.191Z,1.85
2022-11-23T11:21:21.690Z,1.80
2022-11-23T11:23:53.330Z,2.30
2022-11-23T11:26:21.999Z,1.73
2022-11-23T11:29:01.505Z,2.10
2022-11-23T11:31:57.787Z,2.25
2022-11-23T11:34:38.359Z,2.13
2022-11-23T11:37:13.453Z,1.70
2022-11-23T11:39:54.152Z,2.25
2022-11-23T11:42:27.518Z,1.98
2022-11-23T11:44:54.431Z,2.72
2022-11-23T11:47:41.923Z,2.40
2022-11-23T11:50:21.457Z,2.45
2022-11-23T11:52:49.118Z,1.88
2022-11-23T11:55:19.941Z,2.17
2022-11-23T11:57:49.419Z,2.45
2022-11-23T12:00:20.474Z,1.65
2022-11-23T12:02:50.088Z,2.42
2022-11-23T12:05:19.130Z,3.15
2022-11-23T12:08:09.227Z,2.15
2022-11-23T12:10:39.516Z,3.13
2022-11-23T12:13:05.895Z,2.22
2022-11-23T12:15:49.296Z,2.33
2022-11-23T12:18:42.242Z,2.05
2022-11-23T12:24:07.331Z,2.10
2022-11-23T12:26:57.440Z,2.80
2022-11-23T12:29:33.317Z,3.08
2022-11-23T12:32:07.381Z,2.40
2022-11-23T12:34:50.531Z,1.83
2022-11-23T12:37:37.360Z,2.50
2022-11-23T12:40:14.349Z,2.92
2022-11-23T12:42:44.686Z,2.90
2022-11-23T12:45:24.085Z,3.03
2022-11-23T12:48:12.414Z,2.50
2022-11-23T12:50:58.967Z,2.72
2022-11-23T12:53:38.252Z,2.92
2022-11-23T12:56:32.541Z,2.67
2022-11-23T12:58:59.272Z,2.30
2022-11-23T13:01:35.461Z,2.67
2022-11-23T13:04:14.069Z,2.45
2022-11-23T13:09:58.210Z,2.30
2022-11-23T13:12:43.415Z,2.30
2022-11-23T13:15:28.056Z,2.50
2022-11-23T13:18:28.524Z,2.25
2022-11-23T13:21:07.558Z,2.50
2022-11-23T13:23:37.926Z,2.70
2022-11-23T13:26:22.096Z,2.40
2022-11-23T13:28:50.488Z,2.22
2022-11-23T13:31:16.923Z,1.90
2022-11-23T13:33:48.321Z,2.17
2022-11-23T13:36:49.206Z,2.50
2022-11-23T13:39:44.038Z,1.95
2022-11-23T13:42:11.147Z,2.20
2022-11-23T13:44:37.579Z,2.65
2022-11-23T13:47:18.588Z,2.20
2022-11-23T13:49:47.146Z,2.72
2022-11-23T13:52:25.458Z,2.78
2022-11-23T13:55:11.949Z,2.33
2022-11-23T13:57:39.402Z,2.17
2022-11-23T14:00:43.540Z,3.08
2022-11-23T14:03:50.424Z,3.03
2022-11-23T14:06:32.039Z,2.50
2022-11-23T14:09:13.611Z,2.33
2022-11-23T14:12:08.605Z,2.45
2022-11-23T14:14:49.866Z,2.47
2022-11-23T14:17:51.171Z,2.53
2022-11-23T14:20:22.492Z,2.15
2022-11-23T14:23:00.233Z,3.73
2022-11-23T14:25:29.432Z,1.95
2022-11-23T14:28:34.641Z,2.65
2022-11-23T14:31:23.031Z,2.08
2022-11-23T14:33:56.736Z,2.78
2022-11-23T14:36:41.394Z,2.25
2022-11-23T14:39:27.288Z,3.22
2022-11-23T14:41:56.468Z,2.10
2022-11-23T14:44:27.377Z,3.30
2022-11-23T14:47:04.933Z,2.58
2022-11-23T14:49:31.375Z,2.42
2022-11-23T14:51:58.256Z,1.88
2022-11-23T14:54:25.771Z,2.95
2022-11-23T14:56:53.786Z,2.30
2022-11-23T14:59:22.486Z,2.50
2022-11-23T15:01:53.444Z,2.15
2022-11-23T15:04:34.971Z,2.88
2022-11-23T15:07:20.904Z,2.70
2022-11-23T15:10:08.948Z,2.17
2022-11-23T15:12:44.083Z,2.35
2022-11-23T15:15:19.266Z,2.83
2022-11-23T15:17:59.701Z,2.33
2022-11-23T15:20:33.910Z,2.15
2022-11-23T15:23:03.999Z,2.50
2022-11-23T15:25:31.576Z,2.13
2022-11-23T15:27:58.078Z,3.28
2022-11-23T15:30:29.804Z,1.85
2022-11-23T15:33:01.303Z,2.03
2022-11-23T15:35:33.208Z,2.03
2022-11-23T15:38:00.905Z,2.15
2022-11-23T15:40:30.353Z,1.85
2022-11-23T15:42:57.091Z,2.47
2022-11-23T15:45:36.143Z,2.13
2022-11-23T15:48:04.480Z,2.17
2022-11-23T15:50:34.011Z,1.90
2022-11-23T15:53:17.611Z,1.90
2022-11-23T15:55:44.294Z,2.28
2022-11-23T15:58:16.333Z,1.80
2022-11-23T16:00:56.728Z,2.00
2022-11-23T16:03:39.592Z,3.92
2022-11-23T16:06:19.023Z,2.08
2022-11-23T16:08:46.621Z,2.83
2022-11-23T16:11:31.310Z,1.83
2022-11-23T16:14:16.465Z,1.63
2022-11-23T16:16:46.021Z,1.63
2022-11-23T16:19:22.897Z,1.92
2022-11-23T16:21:50.099Z,1.88
2022-11-23T16:24:20.568Z,1.70
2022-11-23T16:26:47.141Z,1.42
2022-11-23T16:29:24.360Z,1.88
2022-11-23T16:31:56.218Z,1.92
2022-11-23T16:34:23.078Z,2.13
2022-11-23T16:36:49.538Z,1.75
2022-11-23T16:39:15.919Z,1.80
2022-11-23T16:41:42.442Z,1.70
2022-11-23T16:44:08.955Z,2.08
2022-11-23T16:46:40.437Z,1.75
2022-11-23T16:49:23.282Z,2.00
2022-11-23T16:51:57.236Z,2.92
2022-11-23T16:54:34.099Z,1.75
2022-11-23T16:57:00.571Z,1.63
2022-11-23T16:59:27.095Z,2.33
2022-11-23T17:01:57.285Z,1.98
2022-11-23T17:04:24.281Z,1.83
2022-11-23T17:06:50.843Z,2.45
2022-11-23T17:09:17.232Z,1.90
2022-11-23T17:11:45.222Z,1.77
2022-11-23T17:14:18.419Z,2.30
2022-11-23T17:16:46.092Z,2.22
2022-11-23T17:19:17.709Z,2.05
2022-11-23T17:21:44.345Z,2.45
2022-11-23T17:24:11.397Z,1.95
2022-11-23T17:26:40.561Z,2.00
2022-11-23T17:29:12.487Z,1.77
2022-11-23T17:31:39.022Z,3.03
2022-11-23T17:34:05.382Z,1.73
2022-11-23T17:36:31.885Z,1.90
2022-11-23T17:38:58.528Z,1.95
2022-11-23T17:41:24.976Z,2.08
2022-11-23T17:43:51.374Z,2.28
2022-11-23T17:46:20.106Z,3.08
2022-11-23T17:48:46.737Z,2.10
2022-11-23T17:51:13.634Z,1.80
2022-11-23T17:53:40.426Z,1.60
2022-11-23T17:56:30.681Z,2.88
2022-11-23T17:58:57.456Z,2.10
2022-11-23T18:01:24.445Z,2.60
2022-11-23T18:03:51.244Z,2.03
2022-11-23T18:06:22.974Z,2.92
2022-11-23T18:08:50.750Z,2.10
2022-11-23T18:11:17.712Z,2.35
2022-11-23T18:13:44.225Z,2.38
2022-11-23T18:16:10.956Z,2.13
2022-11-23T18:18:37.780Z,2.15
2022-11-23T18:21:05.652Z,2.58
2022-11-23T18:23:32.399Z,1.75
2022-11-23T18:26:03.166Z,1.95
2022-11-23T18:28:30.159Z,3.13
2022-11-23T18:30:57.059Z,2.13
2022-11-23T18:33:24.318Z,1.90
2022-11-23T18:35:50.846Z,2.22
2022-11-23T18:38:17.214Z,2.00
2022-11-23T18:40:43.747Z,2.03
2022-11-23T18:43:10.158Z,1.70
2022-11-23T18:45:36.522Z,1.83
2022-11-23T18:48:02.948Z,1.50
2022-11-23T18:50:29.414Z,2.55
2022-11-23T18:52:55.860Z,1.48
2022-11-23T18:55:22.213Z,1.98
2022-11-23T18:57:48.771Z,1.80
2022-11-23T19:00:16.413Z,1.58
2022-11-23T19:02:42.837Z,1.60
2022-11-23T19:05:09.277Z,1.88
2022-11-23T19:07:35.699Z,1.95
2022-11-23T19:10:02.133Z,1.45
2022-11-23T19:12:30.254Z,1.95
2022-11-23T19:14:56.766Z,1.88
2022-11-23T19:17:23.159Z,1.95
2022-11-23T19:19:49.612Z,2.08
2022-11-23T19:22:16.013Z,1.50
2022-11-23T19:24:42.395Z,1.98
2022-11-23T19:27:08.768Z,2.10
2022-11-23T19:29:35.440Z,2.25
2022-11-23T19:32:01.959Z,1.70
2022-11-23T19:34:28.408Z,2.35
2022-11-23T19:36:54.905Z,1.70
2022-11-23T19:39:21.305Z,2.05
2022-11-23T19:41:47.989Z,2.17
2022-11-23T19:44:14.726Z,1.60
2022-11-23T19:46:41.199Z,1.73
2022-11-23T19:49:08.479Z,2.15
2022-11-23T19:51:34.919Z,2.00
2022-11-23T19:54:02.062Z,2.55
2022-11-23T19:56:29.326Z,2.08
2022-11-23T19:58:57.779Z,2.03
2022-11-23T20:01:26.897Z,1.80
2022-11-23T20:03:55.299Z,2.17
2022-11-23T20:06:27.236Z,2.28
2022-11-23T20:08:55.532Z,1.83
2022-11-23T20:11:22.355Z,2.00
2022-11-23T20:13:48.982Z,1.95
2022-11-23T20:16:17.122Z,1.90
2022-11-23T20:18:44.520Z,3.10
2022-11-23T20:21:12.133Z,2.53
2022-11-23T20:23:39.147Z,2.60
2022-11-23T20:26:05.587Z,2.00
2022-11-23T20:28:32.061Z,2.50
2022-11-23T20:31:09.518Z,2.35
2022-11-23T20:33:36.571Z,2.22
2022-11-23T20:36:09.430Z,2.17
2022-11-23T20:38:37.592Z,2.63
2022-11-23T20:41:34.349Z,2.35
2022-11-23T20:44:03.253Z,2.47
2022-11-23T20:47:01.198Z,2.50
2022-11-23T20:49:17.461Z,2.10
2022-11-23T20:51:43.833Z,2.85
2022-11-23T20:54:10.220Z,2.45
2022-11-23T20:56:38.942Z,2.55
2022-11-23T20:59:05.316Z,2.50
2022-11-23T21:01:32.475Z,2.78
2022-11-23T21:03:59.421Z,3.13
2022-11-23T21:06:27.051Z,2.47
2022-11-23T21:08:53.439Z,2.90
2022-11-23T21:11:40.734Z,2.83
2022-11-23T21:14:20.879Z,3.00
2022-11-23T21:16:58.231Z,3.28
2022-11-23T21:19:31.259Z,3.40
2022-11-23T21:21:59.003Z,3.03
2022-11-23T21:24:25.756Z,3.00
2022-11-23T21:26:52.201Z,2.70
2022-11-23T21:29:18.775Z,3.38
2022-11-23T21:31:47.629Z,2.83
2022-11-23T21:34:18.267Z,3.65
2022-11-23T21:36:45.062Z,3.17
2022-11-23T21:39:12.090Z,3.15
2022-11-23T21:41:39.213Z,3.38
2022-11-23T21:44:06.896Z,2.92
2022-11-23T21:46:33.370Z,3.40
2022-11-23T21:49:00.331Z,3.53
2022-11-23T21:51:29.761Z,3.20
2022-11-23T21:53:57.594Z,3.35
2022-11-23T21:56:24.197Z,3.30
2022-11-23T21:58:50.772Z,3.42
2022-11-23T22:01:22.021Z,3.70
2022-11-23T22:03:56.568Z,4.00
2022-11-23T22:06:23.063Z,4.03
2022-11-23T22:08:50.399Z,3.90
2022-11-23T22:11:22.048Z,4.85
2022-11-23T22:13:52.011Z,3.90
2022-11-23T22:16:29.402Z,4.90
2022-11-23T22:18:56.404Z,4.75
2022-11-23T22:21:33.951Z,4.40
2022-11-23T22:24:00.353Z,4.15
2022-11-23T22:26:27.679Z,4.53
2022-11-23T22:28:54.846Z,4.25
2022-11-23T22:31:25.087Z,4.93
2022-11-23T22:33:54.619Z,3.83
2022-11-23T22:36:23.128Z,4.72
2022-11-23T22:39:15.863Z,4.25
2022-11-23T22:41:42.738Z,5.13
2022-11-23T22:44:10.145Z,3.78
2022-11-23T22:46:37.178Z,4.45
2022-11-23T22:49:03.810Z,4.95
2022-11-23T22:51:30.397Z,4.95
2022-11-23T22:53:58.367Z,3.97
2022-11-23T22:56:25.009Z,4.63
2022-11-23T22:58:51.395Z,5.03
2022-11-23T23:01:23.274Z,4.13
2022-11-23T23:03:55.350Z,4.43
2022-11-23T23:08:55.859Z,3.97
2022-11-23T23:11:22.686Z,3.90
2022-11-23T23:13:49.047Z,3.65
2022-11-23T23:16:15.543Z,3.80
2022-11-23T23:18:43.039Z,4.68
2022-11-23T23:21:14.957Z,5.47
2022-11-23T23:23:46.087Z,3.65
2022-11-23T23:26:14.397Z,4.32
2022-11-23T23:28:40.868Z,3.15
2022-11-23T23:31:09.463Z,3.25
2022-11-23T23:33:35.849Z,3.72
2022-11-23T23:36:08.738Z,4.45
2022-11-23T23:38:35.242Z,4.60
2022-11-23T23:41:01.607Z,3.88
2022-11-23T23:43:28.605Z,4.13
2022-11-23T23:45:59.420Z,4.30
2022-11-23T23:48:28.659Z,3.63
2022-11-23T23:50:55.021Z,3.35
2022-11-23T23:53:21.662Z,4.22
2022-11-23T23:55:58.003Z,4.68
2022-11-23T23:58:24.862Z,4.20
